createdAt,value
2018-12-19T00:00:01.855Z,0.13
2018-12-19T00:02:34.085Z,0.10
2018-12-19T00:05:05.239Z,0.19
2018-12-19T00:07:37.549Z,0.20
2018-12-19T00:10:08.016Z,0.14
2018-12-19T00:12:42.910Z,0.13
2018-12-19T00:15:15.206Z,0.13
2018-12-19T00:17:47.298Z,0.12
2018-12-19T00:20:21.146Z,0.06
2018-12-19T00:22:53.686Z,0.06
2018-12-19T00:25:25.495Z,0.07
2018-12-19T00:27:57.942Z,0.09
2018-12-19T00:30:30.245Z,0.05
2018-12-19T00:33:02.147Z,0.00
2018-12-19T00:35:32.468Z,-0.02
2018-12-19T00:38:04.165Z,-0.06
2018-12-19T00:40:36.375Z,-0.10
2018-12-19T00:43:08.544Z,-0.13
2018-12-19T00:45:40.767Z,-0.16
2018-12-19T00:48:12.978Z,-0.21
2018-12-19T00:50:45.209Z,-0.29
2018-12-19T00:53:17.409Z,-0.34
2018-12-19T00:55:49.373Z,-0.41
2018-12-19T00:58:23.865Z,-0.48
2018-12-19T01:00:55.742Z,-0.54
2018-12-19T01:03:27.988Z,-0.61
2018-12-19T01:06:00.170Z,-0.65
2018-12-19T01:08:30.486Z,-0.67
2018-12-19T01:11:02.862Z,-0.69
2018-12-19T01:13:35.005Z,-0.66
2018-12-19T01:16:07.404Z,-0.73
2018-12-19T01:18:39.671Z,-0.78
2018-12-19T01:21:14.812Z,-0.75
2018-12-19T01:23:46.916Z,-0.82
2018-12-19T01:26:19.187Z,-0.98
2018-12-19T01:28:51.606Z,-1.06
2018-12-19T01:31:24.946Z,-1.09
2018-12-19T01:33:55.268Z,-1.11
2018-12-19T01:36:27.218Z,-1.07
2018-12-19T01:38:59.536Z,-1.03
2018-12-19T01:41:31.599Z,-1.10
2018-12-19T01:44:04.118Z,-1.18
2018-12-19T01:46:36.525Z,-1.20
2018-12-19T01:49:08.581Z,-1.17
2018-12-19T01:51:40.717Z,-1.20
2018-12-19T01:54:11.159Z,-1.23
2018-12-19T01:56:43.316Z,-1.25
2018-12-19T01:59:17.710Z,-1.24
2018-12-19T02:01:49.920Z,-1.18
2018-12-19T02:04:21.761Z,-1.14
2018-12-19T02:06:52.603Z,-1.14
2018-12-19T02:09:28.901Z,-1.10
2018-12-19T02:11:59.123Z,-1.11
2018-12-19T02:14:31.160Z,-1.12
2018-12-19T02:17:03.278Z,-1.20
2018-12-19T02:19:35.238Z,-1.27
2018-12-19T02:22:10.016Z,-1.32
2018-12-19T02:24:41.752Z,-1.34
2018-12-19T02:27:14.212Z,-1.38
2018-12-19T02:29:46.534Z,-1.41
2018-12-19T02:32:18.529Z,-1.40
2018-12-19T02:34:50.805Z,-1.37
2018-12-19T02:37:23.210Z,-1.26
2018-12-19T02:39:55.660Z,-1.26
2018-12-19T02:42:27.765Z,-1.19
2018-12-19T02:45:00.216Z,-1.13
2018-12-19T02:47:46.676Z,-1.20
2018-12-19T02:50:18.731Z,-1.25
2018-12-19T02:52:49.092Z,-1.23
2018-12-19T02:55:21.308Z,-1.16
2018-12-19T02:57:53.753Z,-1.10
2018-12-19T03:00:25.970Z,-1.16
2018-12-19T03:02:58.281Z,-1.11
2018-12-19T03:05:30.715Z,-1.13
2018-12-19T03:08:02.752Z,-1.08
2018-12-19T03:10:34.977Z,-1.04
2018-12-19T03:13:07.031Z,-1.03
2018-12-19T03:15:39.433Z,-1.05
2018-12-19T03:18:11.313Z,-1.09
2018-12-19T03:20:43.695Z,-1.09
2018-12-19T03:23:15.751Z,-1.05
2018-12-19T03:25:48.081Z,-1.01
2018-12-19T03:28:20.054Z,-0.86
2018-12-19T03:30:50.250Z,-0.81
2018-12-19T03:33:22.719Z,-0.72
2018-12-19T03:35:53.043Z,-0.64
2018-12-19T03:38:25.336Z,-0.60
2018-12-19T03:40:57.564Z,-0.60
2018-12-19T03:43:29.886Z,-0.54
2018-12-19T03:46:02.377Z,-0.45
2018-12-19T03:48:40.049Z,-0.43
2018-12-19T03:51:11.739Z,-0.40
2018-12-19T03:53:41.742Z,-0.43
2018-12-19T03:56:14.348Z,-0.46
2018-12-19T03:58:46.624Z,-0.38
2018-12-19T04:01:18.351Z,-0.34
2018-12-19T04:06:48.306Z,-0.51
2018-12-19T04:09:18.785Z,-0.47
2018-12-19T04:11:50.987Z,-0.47
2018-12-19T04:14:23.305Z,-0.44
2018-12-19T04:16:55.719Z,-0.46
2018-12-19T04:19:27.805Z,-0.48
2018-12-19T04:21:58.229Z,-0.42
2018-12-19T04:24:30.466Z,-0.34
2018-12-19T04:27:00.694Z,-0.34
2018-12-19T04:29:33.609Z,-0.35
2018-12-19T04:32:04.132Z,-0.26
2018-12-19T04:34:36.671Z,-0.31
2018-12-19T04:37:06.770Z,-0.28
2018-12-19T04:39:38.932Z,-0.25
2018-12-19T04:42:09.240Z,-0.18
2018-12-19T04:44:41.265Z,-0.11
2018-12-19T04:47:13.288Z,-0.02
2018-12-19T04:49:43.729Z,-0.09
2018-12-19T04:52:15.969Z,-0.02
2018-12-19T04:54:47.615Z,-0.03
2018-12-19T04:57:19.757Z,0.00
2018-12-19T04:59:51.903Z,0.19
2018-12-19T05:02:24.094Z,0.16
2018-12-19T05:04:56.184Z,0.13
2018-12-19T05:07:28.874Z,0.12
2018-12-19T05:10:03.451Z,0.14
2018-12-19T05:12:35.184Z,0.13
2018-12-19T05:15:09.251Z,0.17
2018-12-19T05:17:41.711Z,0.16
2018-12-19T05:20:13.892Z,0.17
2018-12-19T05:22:46.785Z,0.09
2018-12-19T05:25:24.984Z,0.11
2018-12-19T05:28:05.406Z,0.11
2018-12-19T05:30:36.060Z,0.12
2018-12-19T05:33:08.242Z,0.16
2018-12-19T05:35:41.590Z,0.32
2018-12-19T05:38:14.022Z,0.35
2018-12-19T05:40:46.460Z,0.34
2018-12-19T05:43:16.688Z,0.26
2018-12-19T05:45:46.829Z,0.31
2018-12-19T05:48:18.856Z,0.32
2018-12-19T05:50:50.988Z,0.33
2018-12-19T05:53:24.895Z,0.30
2018-12-19T05:55:56.506Z,0.22
2018-12-19T05:58:26.805Z,0.23
2018-12-19T06:00:59.305Z,0.39
2018-12-19T06:03:31.465Z,0.42
2018-12-19T06:06:03.474Z,0.42
2018-12-19T06:08:35.644Z,0.50
2018-12-19T06:11:07.870Z,0.60
2018-12-19T06:13:39.913Z,0.50
2018-12-19T06:16:12.038Z,0.54
2018-12-19T06:18:44.224Z,0.67
2018-12-19T06:21:16.637Z,0.65
2018-12-19T06:23:46.968Z,0.75
2018-12-19T06:26:19.215Z,0.83
2018-12-19T06:28:51.449Z,0.91
2018-12-19T06:31:23.831Z,0.87
2018-12-19T06:33:56.472Z,0.80
2018-12-19T06:36:28.615Z,0.82
2018-12-19T06:39:01.777Z,0.81
2018-12-19T06:41:33.805Z,0.88
2018-12-19T06:44:05.811Z,0.88
2018-12-19T06:46:38.422Z,0.92
2018-12-19T06:49:10.100Z,0.98
2018-12-19T06:51:42.124Z,1.07
2018-12-19T06:54:14.364Z,1.09
2018-12-19T06:56:46.608Z,1.09
2018-12-19T06:59:18.885Z,1.16
2018-12-19T07:01:51.116Z,1.24
2018-12-19T07:04:23.571Z,1.34
2018-12-19T07:06:55.889Z,1.51
2018-12-19T07:09:27.919Z,1.51
2018-12-19T07:12:00.127Z,1.57
2018-12-19T07:14:41.071Z,1.56
2018-12-19T07:17:14.326Z,1.61
2018-12-19T07:19:48.964Z,1.59
2018-12-19T07:22:25.559Z,1.71
2018-12-19T07:24:57.054Z,1.80
2018-12-19T07:27:29.870Z,1.80
2018-12-19T07:30:02.506Z,1.75
2018-12-19T07:32:34.861Z,1.87
2018-12-19T07:35:13.932Z,1.93
2018-12-19T07:40:46.150Z,1.92
2018-12-19T07:43:36.944Z,1.95
2018-12-19T07:46:10.845Z,1.96
2018-12-19T07:48:46.548Z,1.95
2018-12-19T07:51:28.521Z,1.95
2018-12-19T07:54:16.313Z,2.03
2018-12-19T07:56:52.303Z,2.07
2018-12-19T07:59:37.394Z,2.14
2018-12-19T08:02:33.780Z,2.14
2018-12-19T08:05:25.953Z,2.13
2018-12-19T08:08:08.012Z,2.25
2018-12-19T08:13:43.508Z,2.43
2018-12-19T08:19:28.448Z,2.55
2018-12-19T08:28:04.392Z,2.66
2018-12-19T08:30:55.217Z,2.67
2018-12-19T08:33:48.607Z,2.74
2018-12-19T08:36:36.870Z,2.78
2018-12-19T08:39:44.779Z,2.77
2018-12-19T08:43:02.872Z,2.88
2018-12-19T08:46:24.150Z,2.97
2018-12-19T09:07:55.725Z,3.55
2018-12-19T09:10:31.403Z,3.61
2018-12-19T09:13:02.886Z,3.62
2018-12-19T09:15:53.030Z,3.68
2018-12-19T09:18:26.322Z,3.68
2018-12-19T09:21:00.737Z,3.72
2018-12-19T09:23:33.510Z,3.75
2018-12-19T09:26:05.452Z,3.70
2018-12-19T09:28:37.699Z,3.79
2018-12-19T09:31:09.617Z,3.79
2018-12-19T09:33:41.898Z,3.82
2018-12-19T09:36:15.231Z,3.78
2018-12-19T09:38:45.502Z,3.88
2018-12-19T09:41:17.681Z,3.89
2018-12-19T09:43:50.135Z,3.94
2018-12-19T09:46:21.940Z,4.03
2018-12-19T09:48:56.290Z,4.03
2018-12-19T09:51:28.334Z,4.10
2018-12-19T09:54:00.368Z,4.13
2018-12-19T09:56:32.789Z,4.17
2018-12-19T09:59:03.085Z,4.21
2018-12-19T10:01:35.218Z,4.20
2018-12-19T10:04:07.503Z,4.31
2018-12-19T10:06:39.231Z,4.28
2018-12-19T10:09:14.960Z,4.39
2018-12-19T10:11:47.520Z,4.38
2018-12-19T10:14:22.149Z,4.40
2018-12-19T10:16:54.808Z,4.40
2018-12-19T10:19:26.780Z,4.45
2018-12-19T10:21:59.769Z,4.41
2018-12-19T10:24:36.732Z,4.50
2018-12-19T10:27:08.752Z,4.50
2018-12-19T10:29:40.973Z,4.71
2018-12-19T10:32:13.110Z,4.86
2018-12-19T10:34:45.855Z,4.91
2018-12-19T10:37:17.679Z,4.88
2018-12-19T10:39:50.252Z,4.95
2018-12-19T10:42:23.182Z,4.84
2018-12-19T10:44:55.998Z,5.12
2018-12-19T10:47:27.665Z,5.14
2018-12-19T10:49:59.921Z,5.18
2018-12-19T10:52:32.500Z,5.19
2018-12-19T10:55:05.558Z,5.14
2018-12-19T10:57:35.974Z,5.30
2018-12-19T11:00:15.896Z,5.43
2018-12-19T11:02:49.040Z,5.34
2018-12-19T11:05:20.780Z,5.28
2018-12-19T11:07:56.218Z,5.36
2018-12-19T11:10:28.763Z,5.49
2018-12-19T11:13:01.240Z,5.49
2018-12-19T11:18:05.741Z,5.40
2018-12-19T11:20:37.560Z,5.61
2018-12-19T11:23:09.615Z,5.80
2018-12-19T11:25:42.632Z,5.95
2018-12-19T11:28:15.079Z,5.95
2018-12-19T11:30:47.457Z,5.95
2018-12-19T11:33:19.467Z,5.92
2018-12-19T11:35:51.742Z,5.78
2018-12-19T11:38:24.088Z,5.58
2018-12-19T11:40:56.359Z,5.56
2018-12-19T11:43:28.735Z,5.56
2018-12-19T11:46:06.768Z,5.59
2018-12-19T11:48:39.404Z,5.58
2018-12-19T11:51:11.660Z,5.58
2018-12-19T11:53:45.201Z,5.72
2018-12-19T11:56:17.471Z,5.74
2018-12-19T11:58:53.962Z,5.71
2018-12-19T12:01:27.006Z,5.71
2018-12-19T12:03:59.604Z,5.78
2018-12-19T12:06:31.647Z,5.78
2018-12-19T12:09:07.066Z,5.76
2018-12-19T12:11:45.443Z,5.80
2018-12-19T12:14:11.540Z,5.78
2018-12-19T12:16:46.230Z,5.74
2018-12-19T12:19:22.749Z,5.71
2018-12-19T12:22:01.324Z,5.63
2018-12-19T12:24:36.359Z,5.50
2018-12-19T12:27:11.696Z,5.32
2018-12-19T12:29:46.475Z,5.19
2018-12-19T12:32:23.145Z,5.16
2018-12-19T12:35:01.879Z,5.15
2018-12-19T12:38:20.787Z,5.16
2018-12-19T12:43:57.379Z,5.10
2018-12-19T12:46:30.527Z,5.12
2018-12-19T12:49:04.794Z,5.10
2018-12-19T12:51:37.465Z,5.06
2018-12-19T12:54:10.277Z,4.99
2018-12-19T12:56:42.691Z,5.00
2018-12-19T12:59:15.610Z,4.97
2018-12-19T13:04:41.517Z,4.92
2018-12-19T13:07:14.051Z,4.87
2018-12-19T13:09:46.363Z,4.76
2018-12-19T13:12:18.647Z,4.72
2018-12-19T13:14:52.964Z,4.64
2018-12-19T13:17:24.751Z,4.67
2018-12-19T13:19:56.683Z,4.62
2018-12-19T13:22:29.988Z,4.58
2018-12-19T13:25:04.953Z,4.57
2018-12-19T13:27:37.414Z,4.63
2018-12-19T13:30:11.666Z,4.59
2018-12-19T13:32:44.408Z,4.54
2018-12-19T13:35:16.188Z,4.50
2018-12-19T13:37:48.519Z,4.51
2018-12-19T13:40:20.486Z,4.47
2018-12-19T13:42:53.204Z,4.41
2018-12-19T13:45:25.694Z,4.43
2018-12-19T13:47:57.967Z,4.51
2018-12-19T13:50:32.207Z,4.57
2018-12-19T13:53:04.282Z,4.56
2018-12-19T13:55:37.096Z,4.54
2018-12-19T13:58:09.775Z,4.53
2018-12-19T14:00:41.739Z,4.61
2018-12-19T14:03:14.096Z,4.58
2018-12-19T14:05:46.144Z,4.53
2018-12-19T14:08:16.448Z,4.51
2018-12-19T14:10:48.920Z,4.52
2018-12-19T14:13:23.643Z,4.58
2018-12-19T14:15:56.249Z,4.55
2018-12-19T14:19:32.142Z,4.49
2018-12-19T14:22:04.424Z,4.40
2018-12-19T14:24:36.501Z,4.44
2018-12-19T14:27:08.791Z,4.44
2018-12-19T14:29:41.573Z,4.36
2018-12-19T14:32:13.841Z,4.44
2018-12-19T14:34:45.768Z,4.38
2018-12-19T14:37:18.011Z,4.34
2018-12-19T14:39:49.999Z,4.35
2018-12-19T14:42:21.839Z,4.36
2018-12-19T14:44:55.329Z,4.29
2018-12-19T14:47:27.236Z,4.37
2018-12-19T14:49:59.551Z,4.33
2018-12-19T14:52:31.573Z,4.33
2018-12-19T14:55:03.683Z,4.33
2018-12-19T14:57:35.738Z,4.31
2018-12-19T15:00:11.472Z,4.28
2018-12-19T15:02:44.561Z,4.31
2018-12-19T15:05:20.842Z,4.31
2018-12-19T15:07:53.674Z,4.30
2018-12-19T15:10:25.785Z,4.26
2018-12-19T15:12:57.796Z,4.26
2018-12-19T15:15:30.575Z,4.30
2018-12-19T15:18:04.697Z,4.28
2018-12-19T15:20:38.954Z,4.25
2018-12-19T15:23:11.022Z,4.19
2018-12-19T15:25:43.166Z,4.21
2018-12-19T15:28:14.915Z,4.22
2018-12-19T15:30:47.402Z,4.24
2018-12-19T15:33:19.672Z,4.26
2018-12-19T15:36:05.803Z,4.30
2018-12-19T15:38:37.661Z,4.26
2018-12-19T15:41:10.215Z,4.27
2018-12-19T15:43:42.407Z,4.29
2018-12-19T15:46:14.533Z,4.24
2018-12-19T15:48:46.601Z,4.27
2018-12-19T15:51:19.425Z,4.28
2018-12-19T15:53:51.280Z,4.27
2018-12-19T15:56:23.536Z,4.23
2018-12-19T15:58:55.850Z,4.25
2018-12-19T16:01:28.826Z,4.21
2018-12-19T16:04:01.087Z,4.20
2018-12-19T16:06:33.606Z,4.17
2018-12-19T16:09:07.923Z,4.17
2018-12-19T16:11:40.956Z,4.12
2018-12-19T16:14:13.656Z,4.18
2018-12-19T16:16:45.732Z,4.14
2018-12-19T16:19:18.039Z,4.20
2018-12-19T16:21:50.018Z,4.18
2018-12-19T16:24:26.718Z,4.16
2018-12-19T16:27:00.501Z,4.14
2018-12-19T16:29:33.192Z,4.18
2018-12-19T16:32:05.037Z,4.16
2018-12-19T16:34:35.144Z,4.20
2018-12-19T16:37:12.676Z,4.20
2018-12-19T16:39:45.161Z,4.19
2018-12-19T16:42:19.728Z,4.19
2018-12-19T16:44:51.884Z,4.17
2018-12-19T16:47:28.398Z,4.13
2018-12-19T16:50:00.951Z,4.17
2018-12-19T16:55:26.900Z,4.21
2018-12-19T16:57:59.007Z,4.21
2018-12-19T17:00:31.448Z,4.20
2018-12-19T17:03:03.273Z,4.20
2018-12-19T17:05:35.733Z,4.21
2018-12-19T17:08:07.793Z,4.21
2018-12-19T17:10:39.904Z,4.11
2018-12-19T17:13:12.156Z,4.06
2018-12-19T17:15:44.431Z,4.05
2018-12-19T17:18:17.251Z,4.20
2018-12-19T17:20:49.309Z,4.15
2018-12-19T17:23:21.705Z,4.11
2018-12-19T17:25:53.804Z,4.21
2018-12-19T17:28:26.191Z,4.12
2018-12-19T17:30:58.194Z,4.23
2018-12-19T17:33:30.628Z,4.12
2018-12-19T17:36:03.155Z,4.27
2018-12-19T17:38:35.269Z,4.31
2018-12-19T17:41:07.327Z,4.42
2018-12-19T17:43:39.529Z,4.37
2018-12-19T17:46:12.060Z,4.48
2018-12-19T17:48:46.408Z,4.46
2018-12-19T17:51:18.356Z,4.39
2018-12-19T17:53:50.588Z,4.48
2018-12-19T17:56:22.596Z,4.46
2018-12-19T17:58:54.873Z,4.50
2018-12-19T18:01:28.596Z,4.53
2018-12-19T18:04:00.508Z,4.50
2018-12-19T18:06:32.563Z,4.55
2018-12-19T18:11:58.836Z,4.52
2018-12-19T18:14:29.344Z,4.49
2018-12-19T18:17:01.496Z,4.63
2018-12-19T18:19:33.336Z,4.67
2018-12-19T18:22:05.689Z,4.65
2018-12-19T18:24:35.676Z,4.63
2018-12-19T18:27:08.384Z,4.58
2018-12-19T18:29:40.112Z,4.62
2018-12-19T18:32:12.576Z,4.55
2018-12-19T18:34:44.561Z,4.73
2018-12-19T18:37:19.407Z,4.60
2018-12-19T18:39:52.181Z,4.65
2018-12-19T18:42:25.076Z,4.68
2018-12-19T18:44:59.700Z,4.67
2018-12-19T18:47:41.736Z,4.75
2018-12-19T18:53:01.582Z,4.88
2018-12-19T18:55:36.188Z,4.74
2018-12-19T18:58:09.335Z,4.79
2018-12-19T19:00:43.866Z,4.87
2018-12-19T19:03:16.252Z,4.88
2018-12-19T19:05:48.377Z,4.80
2018-12-19T19:08:20.524Z,4.77
2018-12-19T19:10:53.027Z,4.84
2018-12-19T19:13:24.930Z,4.95
2018-12-19T19:15:57.005Z,4.99
2018-12-19T19:18:29.391Z,4.95
2018-12-19T19:21:01.764Z,5.06
2018-12-19T19:23:36.125Z,5.01
2018-12-19T19:29:02.023Z,4.96
2018-12-19T19:31:34.367Z,4.80
2018-12-19T19:34:06.368Z,4.74
2018-12-19T19:36:39.476Z,4.81
2018-12-19T19:39:09.981Z,4.89
2018-12-19T19:41:41.886Z,4.89
2018-12-19T19:44:14.038Z,4.84
2018-12-19T19:46:46.489Z,4.81
2018-12-19T19:49:18.751Z,4.75
2018-12-19T19:51:51.123Z,4.82
2018-12-19T19:54:23.370Z,4.83
2018-12-19T19:56:55.836Z,4.92
2018-12-19T19:59:28.196Z,4.94
2018-12-19T20:02:00.413Z,4.98
2018-12-19T20:04:32.552Z,4.92
2018-12-19T20:07:05.133Z,5.01
2018-12-19T20:09:37.520Z,5.03
2018-12-19T20:12:09.800Z,5.01
2018-12-19T20:14:42.116Z,4.98
2018-12-19T20:17:18.088Z,4.93
2018-12-19T20:19:50.525Z,5.07
2018-12-19T20:22:23.161Z,5.00
2018-12-19T20:24:55.307Z,4.93
2018-12-19T20:27:30.536Z,5.04
2018-12-19T20:30:02.585Z,5.00
2018-12-19T20:32:34.719Z,4.96
2018-12-19T20:35:09.542Z,4.95
2018-12-19T20:37:41.281Z,4.93
2018-12-19T20:40:19.324Z,4.95
2018-12-19T20:45:46.299Z,4.96
2018-12-19T20:48:19.842Z,4.93
2018-12-19T20:50:54.120Z,4.95
2018-12-19T20:53:26.326Z,4.94
2018-12-19T20:56:03.845Z,5.03
2018-12-19T20:58:36.864Z,5.03
2018-12-19T21:01:09.870Z,4.99
2018-12-19T21:03:46.553Z,4.95
2018-12-19T21:06:18.432Z,4.99
2018-12-19T21:08:48.905Z,5.03
2018-12-19T21:11:21.447Z,5.01
2018-12-19T21:13:53.615Z,4.95
2018-12-19T21:18:34.645Z,4.95
2018-12-19T21:21:07.277Z,4.82
2018-12-19T21:23:42.687Z,4.75
2018-12-19T21:26:17.154Z,4.70
2018-12-19T21:28:49.097Z,4.64
2018-12-19T21:31:26.028Z,4.66
2018-12-19T21:34:10.236Z,4.64
2018-12-19T21:36:53.365Z,4.61
2018-12-19T21:39:37.247Z,4.60
2018-12-19T21:42:15.139Z,4.61
2018-12-19T21:44:48.665Z,4.58
2018-12-19T21:47:23.035Z,4.59
2018-12-19T21:49:54.977Z,4.59
2018-12-19T21:52:27.226Z,4.53
2018-12-19T21:54:59.565Z,4.52
2018-12-19T21:57:37.271Z,4.52
2018-12-19T22:03:07.955Z,4.44
2018-12-19T22:05:40.894Z,4.46
2018-12-19T22:08:13.098Z,4.36
2018-12-19T22:10:45.743Z,4.37
2018-12-19T22:13:18.718Z,4.42
2018-12-19T22:15:52.184Z,4.45
2018-12-19T22:18:30.463Z,4.44
2018-12-19T22:21:03.009Z,4.38
2018-12-19T22:23:35.588Z,4.39
2018-12-19T22:26:07.910Z,4.41
2018-12-19T22:28:45.128Z,4.36
2018-12-19T22:31:16.976Z,4.33
2018-12-19T22:33:48.975Z,4.38
2018-12-19T22:36:19.851Z,4.37
2018-12-19T22:38:51.891Z,4.34
2018-12-19T22:41:23.766Z,4.35
2018-12-19T22:43:57.233Z,4.35
2018-12-19T22:46:29.097Z,4.41
2018-12-19T22:49:00.980Z,4.35
2018-12-19T22:51:35.465Z,4.32
2018-12-19T22:54:10.136Z,4.31
2018-12-19T22:56:43.165Z,4.33
2018-12-19T22:59:16.698Z,4.28
2018-12-19T23:01:53.532Z,4.35
2018-12-19T23:04:25.799Z,4.32
2018-12-19T23:06:57.525Z,4.40
2018-12-19T23:09:32.237Z,4.44
2018-12-19T23:12:04.179Z,4.43
2018-12-19T23:14:38.628Z,4.37
2018-12-19T23:17:28.226Z,4.36
2018-12-19T23:20:02.863Z,4.36
2018-12-19T23:22:34.783Z,4.41
2018-12-19T23:25:07.941Z,4.37
2018-12-19T23:27:40.444Z,4.34
2018-12-19T23:30:14.056Z,4.36
2018-12-19T23:32:47.009Z,4.33
2018-12-19T23:35:20.875Z,4.27
2018-12-19T23:37:53.430Z,4.31
2018-12-19T23:40:25.659Z,4.25
2018-12-19T23:42:58.742Z,4.25
2018-12-19T23:45:30.768Z,4.29
2018-12-19T23:48:03.223Z,4.29
2018-12-19T23:50:34.922Z,4.37
2018-12-19T23:53:07.311Z,4.34
2018-12-19T23:55:39.932Z,4.28
2018-12-19T23:58:12.343Z,4.37
